createdAt,value
2017-09-24T00:00:17.419Z,17.10
2017-09-24T00:02:45.088Z,19.23
2017-09-24T00:05:12.717Z,16.90
2017-09-24T00:07:40.355Z,16.05
2017-09-24T00:10:08.020Z,17.70
2017-09-24T00:12:35.662Z,19.10
2017-09-24T00:15:03.301Z,18.85
2017-09-24T00:17:30.972Z,24.58
2017-09-24T00:19:58.610Z,24.60
2017-09-24T00:22:26.239Z,22.20
2017-09-24T00:24:54.192Z,23.87
2017-09-24T00:27:21.826Z,24.65
2017-09-24T00:29:49.456Z,19.85
2017-09-24T00:32:17.132Z,22.10
2017-09-24T00:34:44.771Z,21.92
2017-09-24T00:37:12.400Z,22.62
2017-09-24T00:39:40.832Z,24.60
2017-09-24T00:42:08.464Z,24.70
2017-09-24T00:44:36.084Z,24.52
2017-09-24T00:47:03.743Z,26.27
2017-09-24T00:49:31.375Z,21.83
2017-09-24T00:51:59.010Z,26.27
2017-09-24T00:54:26.676Z,21.08
2017-09-24T00:56:54.307Z,27.25
2017-09-24T00:59:21.948Z,21.98
2017-09-24T01:01:49.620Z,26.37
2017-09-24T01:04:17.278Z,19.73
2017-09-24T01:06:44.908Z,22.40
2017-09-24T01:09:12.567Z,20.40
2017-09-24T01:11:40.213Z,23.73
2017-09-24T01:14:07.844Z,21.95
2017-09-24T01:16:35.512Z,25.00
2017-09-24T01:19:03.144Z,25.02
2017-09-24T01:21:30.818Z,21.42
2017-09-24T01:23:58.476Z,26.15
2017-09-24T01:26:26.104Z,24.77
2017-09-24T01:28:53.739Z,22.95
2017-09-24T01:31:21.397Z,21.95
2017-09-24T01:33:49.027Z,21.62
2017-09-24T01:36:16.655Z,22.25
2017-09-24T01:38:44.319Z,21.60
2017-09-24T01:41:11.959Z,20.85
2017-09-24T01:43:39.586Z,18.77
2017-09-24T01:46:07.249Z,25.80
2017-09-24T01:48:34.880Z,26.55
2017-09-24T01:51:02.520Z,21.77
2017-09-24T01:53:30.184Z,22.35
2017-09-24T01:55:57.846Z,20.70
2017-09-24T01:58:25.480Z,19.90
2017-09-24T02:00:53.147Z,30.17
2017-09-24T02:03:20.777Z,22.58
2017-09-24T02:05:48.413Z,22.30
2017-09-24T02:08:16.075Z,25.27
2017-09-24T02:10:43.712Z,29.70
2017-09-24T02:13:11.348Z,24.37
2017-09-24T02:15:39.017Z,24.08
2017-09-24T02:18:06.652Z,30.20
2017-09-24T02:20:34.284Z,28.25
2017-09-24T02:23:01.948Z,24.30
2017-09-24T02:25:29.585Z,22.62
2017-09-24T02:27:57.220Z,24.35
2017-09-24T02:30:24.889Z,26.48
2017-09-24T02:32:52.533Z,27.67
2017-09-24T02:35:20.167Z,28.60
2017-09-24T02:37:47.833Z,26.12
2017-09-24T02:40:15.465Z,26.25
2017-09-24T02:42:43.099Z,22.65
2017-09-24T02:45:10.770Z,29.83
2017-09-24T02:47:38.412Z,29.23
2017-09-24T02:50:06.052Z,28.48
2017-09-24T02:52:33.735Z,23.55
2017-09-24T02:55:01.363Z,23.87
2017-09-24T02:57:28.996Z,20.80
2017-09-24T02:59:56.655Z,24.10
2017-09-24T03:02:24.292Z,26.27
2017-09-24T03:04:51.926Z,23.30
2017-09-24T03:07:19.592Z,26.37
2017-09-24T03:09:47.228Z,21.50
2017-09-24T03:12:14.863Z,21.90
2017-09-24T03:14:43.179Z,26.77
2017-09-24T03:17:10.816Z,22.83
2017-09-24T03:19:38.441Z,27.77
2017-09-24T03:22:06.117Z,27.33
2017-09-24T03:24:33.756Z,21.17
2017-09-24T03:27:01.400Z,21.55
2017-09-24T03:29:29.085Z,28.85
2017-09-24T03:31:57.495Z,26.77
2017-09-24T03:34:25.127Z,21.55
2017-09-24T03:36:53.260Z,19.55
2017-09-24T03:39:20.913Z,20.00
2017-09-24T03:41:48.548Z,21.15
2017-09-24T03:44:16.992Z,24.08
2017-09-24T03:46:44.633Z,20.10
2017-09-24T03:49:12.275Z,23.83
2017-09-24T03:51:39.932Z,21.77
2017-09-24T03:54:07.563Z,26.95
2017-09-24T03:56:35.196Z,22.67
2017-09-24T03:59:02.878Z,22.45
2017-09-24T04:01:31.280Z,19.98
2017-09-24T04:03:58.917Z,21.62
2017-09-24T04:06:26.580Z,19.50
2017-09-24T04:08:54.220Z,20.37
2017-09-24T04:11:21.856Z,24.30
2017-09-24T04:13:49.520Z,24.87
2017-09-24T04:16:17.150Z,21.73
2017-09-24T04:18:44.783Z,23.30
2017-09-24T04:21:13.220Z,23.15
2017-09-24T04:23:40.857Z,23.60
2017-09-24T04:26:08.497Z,25.58
2017-09-24T04:28:36.164Z,24.20
2017-09-24T04:31:03.794Z,27.10
2017-09-24T04:33:31.428Z,31.12
2017-09-24T04:35:59.093Z,21.80
2017-09-24T04:38:26.777Z,25.45
2017-09-24T04:40:54.439Z,27.30
2017-09-24T04:43:22.106Z,31.65
2017-09-24T04:45:49.747Z,24.42
2017-09-24T04:48:17.380Z,22.73
2017-09-24T04:50:45.046Z,28.75
2017-09-24T04:53:12.676Z,22.87
2017-09-24T04:55:40.375Z,23.70
2017-09-24T04:58:08.043Z,25.25
2017-09-24T05:00:36.435Z,21.17
2017-09-24T05:03:04.071Z,24.05
2017-09-24T05:05:31.735Z,23.62
2017-09-24T05:07:59.363Z,25.50
2017-09-24T05:10:26.996Z,21.75
2017-09-24T05:12:55.425Z,24.10
2017-09-24T05:15:23.056Z,23.10
2017-09-24T05:17:50.687Z,25.60
2017-09-24T05:20:18.344Z,23.25
2017-09-24T05:22:45.976Z,29.08
2017-09-24T05:25:13.616Z,20.15
2017-09-24T05:27:41.281Z,21.60
2017-09-24T05:30:08.924Z,29.58
2017-09-24T05:32:36.556Z,26.23
2017-09-24T05:35:04.220Z,24.02
2017-09-24T05:37:31.849Z,24.42
2017-09-24T05:39:59.500Z,27.15
2017-09-24T05:42:27.155Z,24.37
2017-09-24T05:44:54.792Z,30.98
2017-09-24T05:47:22.422Z,22.92
2017-09-24T05:49:50.082Z,26.65
2017-09-24T05:52:17.720Z,27.52
2017-09-24T05:54:45.353Z,27.98
2017-09-24T05:57:13.784Z,25.15
2017-09-24T05:59:41.427Z,29.77
2017-09-24T06:02:09.065Z,28.98
2017-09-24T06:04:36.736Z,23.95
2017-09-24T06:07:04.372Z,22.92
2017-09-24T06:09:32.031Z,24.98
2017-09-24T06:11:59.702Z,22.20
2017-09-24T06:14:28.103Z,23.00
2017-09-24T06:16:55.767Z,24.30
2017-09-24T06:19:23.433Z,23.92
2017-09-24T06:21:51.572Z,26.08
2017-09-24T06:24:20.041Z,29.70
2017-09-24T06:26:47.699Z,22.75
2017-09-24T06:29:15.340Z,23.20
2017-09-24T06:31:43.001Z,29.08
2017-09-24T06:34:12.778Z,27.48
2017-09-24T06:36:40.416Z,24.58
2017-09-24T06:39:08.421Z,24.42
2017-09-24T06:41:42.681Z,23.50
2017-09-24T06:44:11.252Z,26.25
2017-09-24T06:46:39.045Z,21.42
2017-09-24T06:49:06.703Z,22.13
2017-09-24T06:51:34.344Z,27.45
2017-09-24T06:54:01.975Z,23.38
2017-09-24T06:56:30.409Z,23.65
2017-09-24T06:58:58.039Z,24.02
2017-09-24T07:01:25.672Z,21.30
2017-09-24T07:03:53.336Z,23.55
2017-09-24T07:06:21.332Z,18.95
2017-09-24T07:08:49.730Z,24.23
2017-09-24T07:11:17.406Z,21.35
2017-09-24T07:13:45.043Z,24.48
2017-09-24T07:16:13.856Z,24.42
2017-09-24T07:18:41.519Z,21.60
2017-09-24T07:21:09.912Z,22.33
2017-09-24T07:23:38.477Z,26.08
2017-09-24T07:26:06.166Z,23.83
2017-09-24T07:28:33.803Z,24.10
2017-09-24T07:31:01.616Z,26.50
2017-09-24T07:33:29.279Z,21.58
2017-09-24T07:35:56.913Z,22.15
2017-09-24T07:38:24.548Z,21.73
2017-09-24T07:40:52.208Z,21.23
2017-09-24T07:43:19.847Z,22.92
2017-09-24T07:45:47.481Z,25.08
2017-09-24T07:48:15.140Z,24.67
2017-09-24T07:50:42.787Z,28.60
2017-09-24T07:53:10.426Z,28.12
2017-09-24T07:55:38.099Z,28.30
2017-09-24T07:58:05.746Z,21.80
2017-09-24T08:00:33.414Z,20.52
2017-09-24T08:03:01.082Z,25.12
2017-09-24T08:05:28.716Z,31.55
2017-09-24T08:07:56.360Z,25.02
2017-09-24T08:10:24.021Z,25.70
2017-09-24T08:12:51.655Z,33.10
2017-09-24T08:15:19.319Z,29.37
2017-09-24T08:17:47.747Z,29.77
2017-09-24T08:20:15.399Z,21.17
2017-09-24T08:22:43.036Z,22.90
2017-09-24T08:25:10.704Z,20.48
2017-09-24T08:27:38.331Z,26.42
2017-09-24T08:30:06.018Z,20.08
2017-09-24T08:32:33.679Z,23.70
2017-09-24T08:35:02.111Z,20.48
2017-09-24T08:37:29.748Z,20.67
2017-09-24T08:39:57.416Z,22.58
2017-09-24T08:42:25.051Z,19.65
2017-09-24T08:44:52.712Z,20.35
2017-09-24T08:47:20.375Z,21.33
2017-09-24T08:49:48.008Z,17.83
2017-09-24T08:52:15.648Z,19.12
2017-09-24T08:54:43.343Z,17.00
2017-09-24T08:57:10.970Z,17.80
2017-09-24T08:59:38.696Z,20.92
2017-09-24T09:02:06.368Z,22.65
2017-09-24T09:04:34.077Z,22.67
2017-09-24T09:07:01.711Z,19.70
2017-09-24T09:09:29.389Z,16.40
2017-09-24T09:11:57.796Z,17.75
2017-09-24T09:14:25.445Z,14.23
2017-09-24T09:16:53.140Z,14.65
2017-09-24T09:19:20.771Z,18.60
2017-09-24T09:21:48.408Z,16.10
2017-09-24T09:24:16.078Z,14.60
2017-09-24T09:26:43.711Z,17.65
2017-09-24T09:29:11.347Z,17.65
2017-09-24T09:31:39.014Z,13.05
2017-09-24T09:34:18.388Z,11.75
2017-09-24T09:36:46.069Z,11.82
2017-09-24T09:39:13.698Z,13.82
2017-09-24T09:41:41.327Z,13.70
2017-09-24T09:44:20.706Z,13.68
2017-09-24T09:46:58.773Z,13.02
2017-09-24T09:49:26.424Z,9.65
2017-09-24T09:51:54.061Z,15.15
2017-09-24T09:54:21.691Z,19.70
2017-09-24T09:56:49.355Z,21.45
2017-09-24T09:59:16.988Z,16.10
2017-09-24T10:01:44.631Z,17.60
2017-09-24T10:04:12.297Z,18.95
2017-09-24T10:06:51.712Z,15.38
2017-09-24T10:09:31.107Z,15.10
2017-09-24T10:11:58.744Z,17.17
2017-09-24T10:14:26.371Z,15.60
2017-09-24T10:16:54.088Z,16.40
2017-09-24T10:19:21.723Z,16.12
2017-09-24T10:21:49.358Z,15.65
2017-09-24T10:24:17.023Z,19.45
2017-09-24T10:26:44.663Z,17.62
2017-09-24T10:29:24.329Z,18.30
2017-09-24T10:32:01.484Z,18.73
2017-09-24T10:34:29.150Z,14.30
2017-09-24T10:36:56.779Z,14.98
2017-09-24T10:39:26.064Z,12.77
2017-09-24T10:41:53.750Z,11.68
2017-09-24T10:44:21.375Z,12.57
2017-09-24T10:46:49.777Z,13.75
2017-09-24T10:49:17.455Z,12.23
2017-09-24T10:51:45.119Z,11.05
2017-09-24T10:54:12.749Z,12.10
2017-09-24T10:56:40.408Z,11.18
2017-09-24T10:59:08.044Z,11.20
2017-09-24T11:01:35.672Z,12.15
2017-09-24T11:04:03.349Z,13.38
2017-09-24T11:06:30.991Z,11.80
2017-09-24T11:08:58.619Z,12.20
2017-09-24T11:11:28.394Z,11.77
2017-09-24T11:13:56.024Z,12.55
2017-09-24T11:16:23.646Z,9.18
2017-09-24T11:18:52.082Z,14.40
2017-09-24T11:21:19.993Z,13.77
2017-09-24T11:23:48.108Z,10.00
2017-09-24T11:26:16.546Z,14.27
2017-09-24T11:28:44.244Z,12.80
2017-09-24T11:31:11.883Z,13.85
2017-09-24T11:33:39.564Z,15.63
2017-09-24T11:36:07.194Z,13.93
2017-09-24T11:38:34.852Z,13.48
2017-09-24T11:41:02.540Z,11.43
2017-09-24T11:43:30.204Z,13.25
2017-09-24T11:45:58.614Z,13.80
2017-09-24T11:48:26.280Z,14.70
2017-09-24T11:50:53.910Z,15.25
2017-09-24T11:53:21.531Z,11.82
2017-09-24T11:55:49.224Z,13.77
2017-09-24T11:58:16.852Z,10.57
2017-09-24T12:00:44.523Z,14.55
2017-09-24T12:03:12.187Z,14.07
2017-09-24T12:05:39.820Z,12.50
2017-09-24T12:08:07.543Z,11.98
2017-09-24T12:10:35.224Z,12.37
2017-09-24T12:13:02.847Z,10.18
2017-09-24T12:15:30.497Z,11.52
2017-09-24T12:17:58.167Z,11.30
2017-09-24T12:20:25.798Z,9.40
2017-09-24T12:22:53.436Z,11.38
2017-09-24T12:25:21.108Z,13.25
2017-09-24T12:27:48.743Z,10.90
2017-09-24T12:30:16.375Z,12.25
2017-09-24T12:32:44.061Z,13.82
2017-09-24T12:35:12.451Z,11.65
2017-09-24T12:37:40.083Z,11.48
2017-09-24T12:40:07.752Z,12.45
2017-09-24T12:42:35.380Z,12.63
2017-09-24T12:45:03.008Z,12.40
2017-09-24T12:47:31.449Z,15.43
2017-09-24T12:49:59.083Z,14.05
2017-09-24T12:52:26.711Z,11.52
2017-09-24T12:54:54.373Z,13.95
2017-09-24T12:57:22.012Z,11.75
2017-09-24T12:59:49.649Z,11.05
2017-09-24T13:02:17.311Z,14.68
2017-09-24T13:04:44.956Z,11.80
2017-09-24T13:07:12.593Z,13.55
2017-09-24T13:09:40.258Z,10.90
2017-09-24T13:12:07.896Z,12.25
2017-09-24T13:14:35.528Z,12.05
2017-09-24T13:17:03.212Z,13.82
2017-09-24T13:19:30.840Z,12.45
2017-09-24T13:21:58.648Z,12.63
2017-09-24T13:24:26.381Z,11.80
2017-09-24T13:26:54.771Z,11.05
2017-09-24T13:29:22.395Z,9.63
2017-09-24T13:31:50.816Z,7.75
2017-09-24T13:34:18.435Z,9.43
2017-09-24T13:36:46.056Z,7.93
2017-09-24T13:39:13.716Z,10.45
2017-09-24T13:41:41.338Z,9.43
2017-09-24T13:44:09.732Z,8.45
2017-09-24T13:46:37.410Z,10.27
2017-09-24T13:49:05.064Z,9.15
2017-09-24T13:51:32.703Z,13.13
2017-09-24T13:54:00.363Z,13.23
2017-09-24T13:56:27.984Z,9.80
2017-09-24T13:58:55.620Z,12.20
2017-09-24T14:01:23.287Z,14.70
2017-09-24T14:03:50.921Z,13.98
2017-09-24T14:06:18.547Z,13.43
2017-09-24T14:08:46.207Z,12.18
2017-09-24T14:11:13.839Z,13.77
2017-09-24T14:13:41.932Z,14.65
2017-09-24T14:16:09.588Z,12.65
2017-09-24T14:18:37.219Z,15.77
2017-09-24T14:21:04.859Z,15.63
2017-09-24T14:23:33.963Z,15.48
2017-09-24T14:26:01.617Z,14.43
2017-09-24T14:28:29.298Z,14.30
2017-09-24T14:30:56.973Z,17.27
2017-09-24T14:33:24.608Z,14.27
2017-09-24T14:35:52.239Z,12.90
2017-09-24T14:38:19.903Z,13.75
2017-09-24T14:40:47.527Z,9.85
2017-09-24T14:43:15.923Z,11.02
2017-09-24T14:45:43.588Z,12.95
2017-09-24T14:48:11.206Z,10.60
2017-09-24T14:50:38.836Z,13.43
2017-09-24T14:53:06.490Z,13.13
2017-09-24T14:55:34.120Z,12.40
2017-09-24T14:58:02.502Z,10.45
2017-09-24T15:00:30.167Z,11.57
2017-09-24T15:02:57.800Z,13.25
2017-09-24T15:05:25.431Z,13.75
2017-09-24T15:07:53.865Z,12.27
2017-09-24T15:10:21.500Z,11.38
2017-09-24T15:12:49.123Z,9.43
2017-09-24T15:15:16.804Z,11.60
2017-09-24T15:17:44.516Z,15.00
2017-09-24T15:20:12.151Z,15.70
2017-09-24T15:22:39.815Z,12.50
2017-09-24T15:25:07.450Z,18.20
2017-09-24T15:27:36.589Z,15.20
2017-09-24T15:30:05.036Z,15.20
2017-09-24T15:32:34.126Z,15.48
2017-09-24T15:35:02.281Z,14.75
2017-09-24T15:37:29.956Z,13.50
2017-09-24T15:39:58.364Z,12.73
2017-09-24T15:42:25.998Z,15.07
2017-09-24T15:44:54.127Z,16.10
2017-09-24T15:47:22.576Z,16.50
2017-09-24T15:49:50.288Z,14.60
2017-09-24T15:52:18.041Z,15.43
2017-09-24T15:54:45.685Z,14.68
2017-09-24T15:57:13.315Z,14.57
2017-09-24T15:59:40.978Z,13.52
2017-09-24T16:02:08.619Z,17.27
2017-09-24T16:04:36.253Z,15.60
2017-09-24T16:07:03.936Z,15.70
2017-09-24T16:09:31.575Z,15.75
2017-09-24T16:11:59.216Z,15.55
2017-09-24T16:14:27.328Z,13.57
2017-09-24T16:16:54.964Z,14.43
2017-09-24T16:19:22.600Z,18.17
2017-09-24T16:21:51.032Z,15.52
2017-09-24T16:24:18.664Z,14.15
2017-09-24T16:26:46.320Z,16.37
2017-09-24T16:29:13.992Z,13.60
2017-09-24T16:31:41.625Z,19.37
2017-09-24T16:34:09.293Z,21.77
2017-09-24T16:36:36.984Z,18.50
2017-09-24T16:39:04.622Z,20.52
2017-09-24T16:41:32.254Z,22.00
2017-09-24T16:43:59.924Z,22.25
2017-09-24T16:46:27.563Z,22.45
2017-09-24T16:48:55.200Z,19.58
2017-09-24T16:51:22.873Z,18.75
2017-09-24T16:53:50.504Z,18.25
2017-09-24T16:56:18.135Z,17.50
2017-09-24T16:58:45.805Z,21.77
2017-09-24T17:01:13.447Z,22.77
2017-09-24T17:03:41.080Z,18.35
2017-09-24T17:06:08.741Z,19.02
2017-09-24T17:08:36.371Z,17.35
2017-09-24T17:11:04.000Z,16.37
2017-09-24T17:13:32.597Z,17.92
2017-09-24T17:16:00.223Z,18.30
2017-09-24T17:18:27.856Z,22.70
2017-09-24T17:20:56.289Z,19.05
2017-09-24T17:23:23.927Z,18.37
2017-09-24T17:25:51.560Z,16.92
2017-09-24T17:28:19.231Z,17.75
2017-09-24T17:30:46.872Z,19.08
2017-09-24T17:33:14.822Z,20.95
2017-09-24T17:35:42.489Z,22.98
2017-09-24T17:38:10.128Z,25.23
2017-09-24T17:40:37.769Z,21.70
2017-09-24T17:43:05.433Z,26.30
2017-09-24T17:45:33.070Z,21.80
2017-09-24T17:48:00.713Z,20.35
2017-09-24T17:50:28.376Z,27.77
2017-09-24T17:52:56.003Z,21.55
2017-09-24T17:55:23.664Z,24.52
2017-09-24T17:57:51.338Z,22.60
2017-09-24T18:00:19.018Z,23.58
2017-09-24T18:02:46.670Z,23.40
2017-09-24T18:05:14.539Z,21.95
2017-09-24T18:07:42.239Z,24.52
2017-09-24T18:10:09.870Z,22.65
2017-09-24T18:12:37.532Z,23.65
2017-09-24T18:15:05.173Z,24.25
2017-09-24T18:17:32.812Z,24.45
2017-09-24T18:20:00.476Z,19.65
2017-09-24T18:22:28.112Z,21.08
2017-09-24T18:24:55.744Z,27.85
2017-09-24T18:27:24.192Z,19.20
2017-09-24T18:29:51.826Z,23.70
2017-09-24T18:32:19.457Z,21.35
2017-09-24T18:34:50.797Z,24.08
2017-09-24T18:37:19.464Z,23.98
2017-09-24T18:39:48.237Z,28.00
2017-09-24T18:42:17.135Z,25.00
2017-09-24T18:44:44.868Z,24.65
2017-09-24T18:47:12.503Z,24.80
2017-09-24T18:49:40.168Z,18.80
2017-09-24T18:52:07.804Z,25.20
2017-09-24T18:54:35.435Z,18.85
2017-09-24T18:57:03.117Z,20.42
2017-09-24T18:59:30.752Z,22.25
2017-09-24T19:01:58.399Z,19.15
2017-09-24T19:04:26.099Z,19.95
2017-09-24T19:06:53.741Z,21.70
2017-09-24T19:09:21.447Z,20.00
2017-09-24T19:11:49.216Z,22.60
2017-09-24T19:14:17.675Z,19.95
2017-09-24T19:16:45.315Z,22.90
2017-09-24T19:19:13.000Z,17.48
2017-09-24T19:21:40.632Z,17.08
2017-09-24T19:24:09.036Z,18.27
2017-09-24T19:26:36.699Z,22.13
2017-09-24T19:29:04.331Z,21.20
2017-09-24T19:31:31.996Z,20.15
2017-09-24T19:33:59.661Z,22.10
2017-09-24T19:36:27.295Z,18.83
2017-09-24T19:38:54.943Z,19.90
2017-09-24T19:41:22.623Z,18.60
2017-09-24T19:43:51.024Z,27.30
2017-09-24T19:46:18.659Z,29.42
2017-09-24T19:48:46.336Z,29.73
2017-09-24T19:51:13.968Z,24.33
2017-09-24T19:53:41.675Z,31.62
2017-09-24T19:56:10.111Z,27.50
2017-09-24T19:58:37.749Z,22.27
2017-09-24T20:01:05.383Z,25.05
2017-09-24T20:03:33.056Z,27.67
2017-09-24T20:06:00.687Z,19.90
2017-09-24T20:08:28.338Z,18.48
2017-09-24T20:10:56.143Z,17.67
2017-09-24T20:13:23.780Z,19.35
2017-09-24T20:15:51.406Z,22.13
2017-09-24T20:18:19.850Z,24.60
2017-09-24T20:20:47.528Z,27.60
2017-09-24T20:23:15.923Z,23.87
2017-09-24T20:25:43.588Z,24.23
2017-09-24T20:28:11.221Z,23.45
2017-09-24T20:30:38.850Z,26.73
2017-09-24T20:33:06.522Z,24.98
2017-09-24T20:35:34.146Z,25.12
2017-09-24T20:38:01.776Z,26.40
2017-09-24T20:40:29.431Z,23.95
2017-09-24T20:42:57.059Z,22.20
2017-09-24T20:45:25.470Z,23.20
2017-09-24T20:47:53.204Z,27.75
2017-09-24T20:50:20.836Z,25.12
2017-09-24T20:52:48.462Z,29.37
2017-09-24T20:55:16.897Z,26.62
2017-09-24T20:57:44.539Z,25.23
2017-09-24T21:00:12.173Z,29.17
2017-09-24T21:02:39.863Z,27.27
2017-09-24T21:05:07.542Z,30.65
2017-09-24T21:07:35.176Z,29.58
2017-09-24T21:10:02.843Z,28.62
2017-09-24T21:12:30.565Z,27.55
2017-09-24T21:14:58.964Z,26.17
2017-09-24T21:17:26.623Z,27.33
2017-09-24T21:19:54.256Z,23.52
2017-09-24T21:22:21.892Z,28.30
2017-09-24T21:24:49.575Z,24.83
2017-09-24T21:27:17.280Z,32.92
2017-09-24T21:29:44.915Z,23.00
2017-09-24T21:32:13.349Z,24.90
2017-09-24T21:34:40.988Z,21.55
2017-09-24T21:37:08.620Z,29.55
2017-09-24T21:39:36.287Z,24.52
2017-09-24T21:42:03.919Z,30.70
2017-09-24T21:44:31.645Z,35.63
2017-09-24T21:46:59.320Z,31.77
2017-09-24T21:49:26.980Z,29.63
2017-09-24T21:51:54.630Z,35.13
2017-09-24T21:54:22.314Z,29.15
2017-09-24T21:56:49.959Z,26.87
2017-09-24T21:59:17.591Z,41.80
2017-09-24T22:01:46.028Z,30.02
2017-09-24T22:04:13.663Z,34.70
2017-09-24T22:06:41.302Z,35.15
2017-09-24T22:09:08.991Z,29.87
2017-09-24T22:11:37.386Z,34.70
2017-09-24T22:14:05.015Z,26.67
2017-09-24T22:16:32.683Z,31.10
2017-09-24T22:19:00.319Z,33.58
2017-09-24T22:21:27.947Z,31.98
2017-09-24T22:23:56.371Z,32.85
2017-09-24T22:26:24.003Z,37.03
2017-09-24T22:28:51.639Z,33.05
2017-09-24T22:31:19.316Z,31.05
2017-09-24T22:33:46.948Z,29.67
2017-09-24T22:36:14.586Z,34.15
2017-09-24T22:38:42.250Z,30.65
2017-09-24T22:41:09.885Z,23.83
2017-09-24T22:43:37.523Z,29.80
2017-09-24T22:46:05.193Z,26.75
2017-09-24T22:48:32.823Z,27.10
2017-09-24T22:51:00.455Z,24.15
2017-09-24T22:53:28.120Z,26.90
2017-09-24T22:55:55.749Z,27.90
2017-09-24T22:58:23.377Z,26.10
2017-09-24T23:00:51.053Z,28.75
2017-09-24T23:03:18.681Z,27.90
2017-09-24T23:05:46.317Z,26.98
2017-09-24T23:08:13.979Z,29.58
2017-09-24T23:10:41.604Z,26.67
2017-09-24T23:13:09.239Z,36.00
2017-09-24T23:15:37.672Z,31.17
2017-09-24T23:18:05.312Z,33.58
2017-09-24T23:20:32.942Z,27.50
2017-09-24T23:23:00.599Z,27.33
2017-09-24T23:25:28.232Z,31.87
2017-09-24T23:27:55.863Z,25.55
2017-09-24T23:30:23.536Z,25.27
2017-09-24T23:32:51.171Z,25.92
2017-09-24T23:35:18.799Z,27.48
2017-09-24T23:37:46.460Z,25.77
2017-09-24T23:40:14.092Z,28.02
2017-09-24T23:42:41.723Z,22.42
2017-09-24T23:45:10.147Z,24.23
2017-09-24T23:47:37.780Z,25.12
2017-09-24T23:50:05.414Z,23.35
2017-09-24T23:52:33.071Z,27.40
2017-09-24T23:55:00.707Z,32.47
2017-09-24T23:57:28.347Z,23.35
2017-09-24T23:59:56.052Z,26.23
